createdAt,value
2022-12-13T00:00:15.412Z,3.17
2022-12-13T00:03:08.503Z,4.05
2022-12-13T00:05:45.256Z,3.50
2022-12-13T00:08:17.881Z,4.28
2022-12-13T00:10:59.430Z,3.22
2022-12-13T00:13:31.935Z,3.50
2022-12-13T00:16:06.739Z,3.45
2022-12-13T00:18:39.806Z,3.55
2022-12-13T00:21:14.523Z,3.90
2022-12-13T00:23:47.413Z,3.10
2022-12-13T00:26:21.573Z,3.40
2022-12-13T00:28:54.551Z,4.53
2022-12-13T00:31:56.837Z,3.63
2022-12-13T00:34:20.023Z,3.92
2022-12-13T00:36:56.355Z,3.70
2022-12-13T00:39:29.291Z,3.50
2022-12-13T00:42:02.192Z,3.28
2022-12-13T00:44:34.850Z,4.10
2022-12-13T00:47:07.823Z,3.13
2022-12-13T00:49:40.430Z,2.80
2022-12-13T00:52:13.291Z,2.50
2022-12-13T00:54:45.752Z,2.78
2022-12-13T00:57:18.644Z,2.97
2022-12-13T00:59:51.644Z,3.58
2022-12-13T01:02:24.609Z,2.70
2022-12-13T01:04:57.365Z,2.90
2022-12-13T01:07:30.310Z,4.38
2022-12-13T01:10:02.974Z,3.15
2022-12-13T01:12:35.975Z,3.38
2022-12-13T01:15:08.797Z,4.13
2022-12-13T01:17:41.746Z,2.92
2022-12-13T01:20:14.296Z,3.85
2022-12-13T01:22:47.219Z,3.95
2022-12-13T01:25:19.719Z,2.97
2022-12-13T01:27:52.612Z,4.20
2022-12-13T01:30:25.184Z,3.05
2022-12-13T01:32:59.043Z,3.45
2022-12-13T01:35:34.576Z,3.55
2022-12-13T01:38:08.226Z,3.70
2022-12-13T01:40:49.628Z,3.83
2022-12-13T01:43:22.487Z,4.00
2022-12-13T01:45:55.394Z,3.80
2022-12-13T01:48:30.023Z,3.45
2022-12-13T01:51:04.112Z,3.92
2022-12-13T01:53:38.385Z,3.42
2022-12-13T01:56:13.244Z,3.08
2022-12-13T01:58:47.683Z,4.18
2022-12-13T02:01:20.672Z,4.13
2022-12-13T02:03:53.594Z,3.17
2022-12-13T02:06:37.105Z,3.05
2022-12-13T02:09:11.355Z,3.85
2022-12-13T02:11:45.131Z,2.63
2022-12-13T02:14:18.153Z,3.35
2022-12-13T02:16:57.723Z,3.85
2022-12-13T02:19:42.663Z,3.10
2022-12-13T02:22:15.199Z,3.88
2022-12-13T02:24:50.899Z,3.60
2022-12-13T02:27:30.783Z,2.83
2022-12-13T02:30:22.940Z,2.88
2022-12-13T02:33:07.668Z,3.35
2022-12-13T02:35:43.825Z,2.92
2022-12-13T02:38:30.098Z,2.42
2022-12-13T02:41:03.375Z,3.50
2022-12-13T02:43:45.475Z,3.78
2022-12-13T02:46:21.364Z,3.78
2022-12-13T02:48:55.359Z,3.17
2022-12-13T02:51:29.425Z,3.25
2022-12-13T02:54:01.994Z,4.13
2022-12-13T02:56:34.899Z,3.05
2022-12-13T02:59:12.270Z,4.05
2022-12-13T03:01:45.198Z,3.03
2022-12-13T03:04:28.437Z,3.75
2022-12-13T03:07:02.423Z,3.22
2022-12-13T03:09:37.728Z,4.47
2022-12-13T03:12:44.539Z,2.78
2022-12-13T03:15:35.583Z,3.15
2022-12-13T03:18:16.329Z,2.97
2022-12-13T03:20:51.999Z,3.20
2022-12-13T03:23:25.485Z,4.15
2022-12-13T03:26:01.961Z,3.83
2022-12-13T03:28:34.987Z,3.83
2022-12-13T03:31:08.089Z,4.57
2022-12-13T03:33:41.171Z,5.88
2022-12-13T03:36:14.081Z,3.40
2022-12-13T03:38:47.768Z,2.92
2022-12-13T03:41:22.572Z,3.42
2022-12-13T03:43:55.450Z,3.28
2022-12-13T03:46:28.050Z,3.13
2022-12-13T03:49:01.067Z,3.97
2022-12-13T03:51:33.765Z,2.95
2022-12-13T03:54:06.690Z,3.97
2022-12-13T03:56:39.231Z,3.58
2022-12-13T03:59:12.250Z,3.60
2022-12-13T04:01:44.806Z,2.65
2022-12-13T04:04:17.747Z,3.60
2022-12-13T04:06:50.432Z,4.20
2022-12-13T04:09:23.558Z,4.07
2022-12-13T04:12:14.674Z,3.35
2022-12-13T04:14:47.463Z,3.28
2022-12-13T04:17:19.986Z,3.40
2022-12-13T04:19:52.976Z,3.50
2022-12-13T04:22:25.542Z,3.67
2022-12-13T04:24:58.416Z,3.92
2022-12-13T04:27:30.891Z,4.65
2022-12-13T04:30:05.118Z,4.07
2022-12-13T04:32:37.652Z,2.88
2022-12-13T04:35:10.544Z,3.47
2022-12-13T04:37:43.658Z,3.30
2022-12-13T04:40:21.497Z,3.30
2022-12-13T04:42:55.025Z,3.17
2022-12-13T04:45:28.165Z,3.95
2022-12-13T04:48:00.820Z,4.57
2022-12-13T04:50:34.069Z,3.35
2022-12-13T04:53:06.822Z,4.10
2022-12-13T04:55:39.685Z,4.05
2022-12-13T04:58:12.327Z,4.30
2022-12-13T05:00:45.625Z,3.25
2022-12-13T05:03:18.190Z,4.47
2022-12-13T05:05:51.195Z,3.33
2022-12-13T05:08:24.029Z,4.40
2022-12-13T05:10:57.126Z,5.50
2022-12-13T05:13:30.422Z,18.17
2022-12-13T05:16:05.359Z,11.73
2022-12-13T05:18:38.007Z,16.92
2022-12-13T05:21:12.398Z,9.20
2022-12-13T05:23:44.972Z,7.10
2022-12-13T05:26:17.850Z,6.50
2022-12-13T05:28:50.376Z,5.95
2022-12-13T05:31:24.134Z,5.38
2022-12-13T05:34:01.547Z,10.27
2022-12-13T05:36:34.743Z,11.82
2022-12-13T05:39:27.879Z,12.98
2022-12-13T05:42:01.972Z,13.55
2022-12-13T05:44:35.837Z,11.75
2022-12-13T05:47:08.820Z,12.27
2022-12-13T05:49:41.460Z,8.27
2022-12-13T05:52:21.404Z,5.38
2022-12-13T05:54:56.957Z,4.53
2022-12-13T05:57:34.324Z,5.70
2022-12-13T06:00:29.191Z,4.60
2022-12-13T06:03:01.944Z,4.03
2022-12-13T06:05:34.749Z,4.82
2022-12-13T06:08:24.776Z,5.40
2022-12-13T06:11:10.124Z,7.25
2022-12-13T06:13:44.936Z,6.95
2022-12-13T06:16:23.776Z,5.38
2022-12-13T06:19:03.859Z,4.20
2022-12-13T06:21:40.669Z,6.85
2022-12-13T06:24:19.889Z,8.18
2022-12-13T06:26:52.524Z,7.72
2022-12-13T06:29:26.056Z,6.95
2022-12-13T06:32:01.947Z,6.20
2022-12-13T06:34:36.497Z,7.78
2022-12-13T06:37:11.343Z,7.47
2022-12-13T06:39:44.695Z,7.65
2022-12-13T06:42:21.835Z,12.82
2022-12-13T06:44:56.276Z,13.57
2022-12-13T06:47:31.131Z,13.40
2022-12-13T06:50:06.021Z,8.90
2022-12-13T06:52:38.714Z,7.35
2022-12-13T06:55:11.771Z,6.38
2022-12-13T06:57:44.329Z,7.10
2022-12-13T07:00:22.401Z,5.32
2022-12-13T07:02:56.092Z,5.30
2022-12-13T07:05:29.670Z,4.43
2022-12-13T07:08:02.284Z,4.47
2022-12-13T07:10:35.585Z,8.32
2022-12-13T07:13:08.835Z,8.35
2022-12-13T07:15:41.786Z,6.68
2022-12-13T07:18:14.588Z,9.15
2022-12-13T07:20:48.077Z,14.38
2022-12-13T07:23:24.411Z,15.23
2022-12-13T07:25:57.762Z,33.33
2022-12-13T07:28:32.722Z,27.17
2022-12-13T07:31:06.456Z,21.15
2022-12-13T07:33:39.171Z,10.93
2022-12-13T07:36:13.537Z,7.25
2022-12-13T07:38:50.747Z,6.03
2022-12-13T07:41:26.948Z,6.35
2022-12-13T07:43:59.963Z,5.95
2022-12-13T07:46:34.019Z,7.10
2022-12-13T07:49:06.848Z,7.30
2022-12-13T07:51:39.778Z,8.52
2022-12-13T07:54:12.492Z,6.72
2022-12-13T07:56:46.180Z,6.35
2022-12-13T07:59:28.835Z,6.25
2022-12-13T08:02:02.248Z,5.00
2022-12-13T08:04:38.363Z,3.72
2022-12-13T08:07:11.562Z,5.18
2022-12-13T08:09:48.108Z,5.03
2022-12-13T08:12:25.456Z,3.63
2022-12-13T08:14:58.423Z,4.28
2022-12-13T08:17:32.094Z,4.50
2022-12-13T08:20:05.461Z,4.28
2022-12-13T08:22:38.354Z,2.72
2022-12-13T08:25:10.979Z,3.42
2022-12-13T08:27:43.881Z,3.25
2022-12-13T08:30:22.833Z,2.47
2022-12-13T08:32:56.568Z,3.03
2022-12-13T08:35:33.926Z,3.40
2022-12-13T08:38:07.304Z,2.97
2022-12-13T08:40:40.390Z,3.20
2022-12-13T08:43:13.775Z,2.63
2022-12-13T08:45:46.308Z,2.33
2022-12-13T08:48:20.357Z,2.88
2022-12-13T08:50:53.607Z,3.15
2022-12-13T08:53:28.612Z,2.90
2022-12-13T08:56:02.844Z,3.10
2022-12-13T08:58:35.686Z,4.03
2022-12-13T09:01:08.959Z,3.40
2022-12-13T09:03:41.907Z,3.97
2022-12-13T09:06:15.621Z,3.47
2022-12-13T09:08:51.473Z,3.10
2022-12-13T09:11:36.399Z,4.70
2022-12-13T09:14:13.889Z,4.30
2022-12-13T09:16:51.038Z,3.20
2022-12-13T09:19:27.037Z,5.22
2022-12-13T09:22:02.496Z,8.60
2022-12-13T09:24:37.099Z,9.20
2022-12-13T09:27:10.474Z,7.18
2022-12-13T09:30:01.157Z,6.03
2022-12-13T09:32:34.189Z,6.15
2022-12-13T09:35:07.490Z,6.10
2022-12-13T09:37:45.603Z,6.35
2022-12-13T09:40:27.806Z,4.28
2022-12-13T09:43:12.487Z,5.43
2022-12-13T09:45:54.019Z,4.85
2022-12-13T09:48:34.615Z,5.07
2022-12-13T09:51:18.231Z,6.55
2022-12-13T09:54:01.325Z,5.55
2022-12-13T09:56:34.252Z,3.47
2022-12-13T09:59:12.625Z,8.23
2022-12-13T10:01:46.184Z,15.85
2022-12-13T10:04:19.686Z,6.55
2022-12-13T10:06:53.966Z,4.00
2022-12-13T10:09:27.292Z,4.38
2022-12-13T10:12:00.718Z,4.00
2022-12-13T10:14:36.839Z,4.95
2022-12-13T10:17:14.061Z,3.17
2022-12-13T10:19:47.888Z,3.65
2022-12-13T10:22:23.388Z,3.88
2022-12-13T10:24:57.789Z,3.50
2022-12-13T10:27:44.483Z,4.72
2022-12-13T10:30:20.622Z,5.95
2022-12-13T10:32:58.814Z,5.05
2022-12-13T10:35:36.726Z,4.75
2022-12-13T10:38:10.743Z,3.92
2022-12-13T10:40:49.317Z,3.00
2022-12-13T10:43:22.768Z,2.97
2022-12-13T10:45:58.746Z,3.65
2022-12-13T10:48:31.863Z,2.97
2022-12-13T10:51:13.526Z,2.55
2022-12-13T10:53:51.608Z,3.65
2022-12-13T10:56:33.448Z,3.70
2022-12-13T10:59:16.997Z,3.50
2022-12-13T11:01:50.235Z,3.80
2022-12-13T11:04:33.369Z,3.65
2022-12-13T11:07:25.489Z,4.10
2022-12-13T11:10:04.711Z,4.00
2022-12-13T11:12:40.683Z,4.63
2022-12-13T11:15:25.295Z,3.70
2022-12-13T11:18:02.681Z,4.57
2022-12-13T11:20:39.401Z,5.20
2022-12-13T11:23:23.248Z,4.03
2022-12-13T11:25:58.069Z,3.05
2022-12-13T11:28:33.594Z,4.25
2022-12-13T11:31:25.447Z,2.67
2022-12-13T11:34:21.208Z,3.70
2022-12-13T11:37:06.675Z,3.05
2022-12-13T11:40:01.149Z,4.38
2022-12-13T11:43:04.286Z,3.25
2022-12-13T11:45:36.997Z,2.92
2022-12-13T11:48:09.866Z,4.45
2022-12-13T11:50:44.515Z,4.10
2022-12-13T11:53:36.133Z,5.80
2022-12-13T11:56:13.668Z,5.20
2022-12-13T11:59:13.400Z,5.70
2022-12-13T12:01:43.384Z,7.70
2022-12-13T12:04:27.023Z,11.18
2022-12-13T12:07:35.443Z,4.95
2022-12-13T12:10:14.531Z,4.30
2022-12-13T12:12:50.948Z,3.47
2022-12-13T12:15:29.617Z,7.95
2022-12-13T12:18:02.480Z,5.00
2022-12-13T12:21:00.674Z,4.32
2022-12-13T12:23:33.248Z,5.72
2022-12-13T12:26:12.226Z,6.03
2022-12-13T12:28:57.641Z,3.60
2022-12-13T12:31:52.591Z,5.03
2022-12-13T12:34:38.802Z,6.80
2022-12-13T12:37:17.548Z,5.72
2022-12-13T12:39:50.492Z,5.20
2022-12-13T12:42:26.403Z,4.97
2022-12-13T12:45:04.696Z,12.18
2022-12-13T12:48:58.497Z,9.27
2022-12-13T12:50:42.996Z,9.15
2022-12-13T12:53:34.914Z,7.45
2022-12-13T12:56:26.355Z,7.55
2022-12-13T12:59:18.532Z,6.03
2022-12-13T13:01:59.640Z,5.43
2022-12-13T13:04:36.208Z,6.35
2022-12-13T13:07:22.497Z,3.83
2022-12-13T13:09:56.884Z,7.10
2022-12-13T13:12:30.944Z,6.90
2022-12-13T13:15:24.071Z,6.78
2022-12-13T13:17:56.937Z,6.57
2022-12-13T13:20:30.379Z,7.30
2022-12-13T13:23:39.750Z,8.02
2022-12-13T13:26:26.859Z,6.20
2022-12-13T13:29:27.357Z,5.32
2022-12-13T13:32:28.446Z,6.53
2022-12-13T13:35:27.734Z,7.20
2022-12-13T13:38:04.613Z,7.22
2022-12-13T13:40:38.199Z,6.72
2022-12-13T13:43:11.430Z,6.22
2022-12-13T13:45:50.607Z,8.57
2022-12-13T13:48:23.966Z,7.90
2022-12-13T13:51:03.627Z,9.55
2022-12-13T13:53:56.246Z,10.52
2022-12-13T13:56:55.150Z,6.63
2022-12-13T13:59:47.448Z,6.78
2022-12-13T14:05:17.491Z,9.65
2022-12-13T14:07:50.069Z,7.40
2022-12-13T14:10:25.912Z,6.75
2022-12-13T14:13:29.046Z,6.38
2022-12-13T14:16:11.985Z,7.88
2022-12-13T14:19:04.973Z,9.15
2022-12-13T14:21:58.080Z,10.20
2022-12-13T14:24:30.568Z,12.75
2022-12-13T14:27:09.416Z,9.45
2022-12-13T14:29:48.489Z,10.00
2022-12-13T14:32:33.142Z,11.52
2022-12-13T14:35:24.805Z,10.77
2022-12-13T14:38:00.635Z,11.05
2022-12-13T14:40:33.361Z,15.90
2022-12-13T14:43:06.421Z,22.00
2022-12-13T14:45:39.278Z,20.70
2022-12-13T14:48:15.733Z,11.90
2022-12-13T14:51:02.071Z,13.60
2022-12-13T14:53:37.691Z,13.48
2022-12-13T14:56:28.441Z,15.32
2022-12-13T14:59:03.635Z,14.55
2022-12-13T15:01:37.676Z,13.32
2022-12-13T15:04:17.587Z,11.95
2022-12-13T15:06:56.180Z,11.88
2022-12-13T15:09:30.242Z,13.55
2022-12-13T15:12:14.738Z,25.02
2022-12-13T15:15:06.813Z,17.95
2022-12-13T15:17:40.502Z,12.38
2022-12-13T15:20:32.422Z,10.25
2022-12-13T15:23:49.151Z,10.18
2022-12-13T15:26:28.853Z,10.73
2022-12-13T15:29:10.354Z,12.75
2022-12-13T15:31:49.013Z,14.30
2022-12-13T15:34:28.619Z,15.35
2022-12-13T15:37:03.053Z,14.52
2022-12-13T15:39:36.845Z,19.13
2022-12-13T15:42:36.480Z,21.63
2022-12-13T15:45:19.378Z,30.35
2022-12-13T15:47:53.531Z,28.10
2022-12-13T15:50:36.670Z,22.77
2022-12-13T15:53:25.114Z,25.10
2022-12-13T15:55:58.143Z,23.85
2022-12-13T15:58:30.948Z,24.27
2022-12-13T16:01:05.986Z,19.13
2022-12-13T16:03:43.372Z,18.58
2022-12-13T16:06:22.404Z,16.85
2022-12-13T16:08:57.977Z,19.13
2022-12-13T16:11:30.649Z,16.48
2022-12-13T16:14:26.248Z,17.70
2022-12-13T16:17:08.764Z,16.40
2022-12-13T16:19:41.965Z,13.75
2022-12-13T16:22:14.595Z,14.45
2022-12-13T16:24:48.687Z,13.88
2022-12-13T16:27:21.368Z,15.68
2022-12-13T16:29:54.485Z,18.52
2022-12-13T16:32:27.135Z,15.60
2022-12-13T16:35:00.030Z,16.10
2022-12-13T16:37:32.547Z,14.07
2022-12-13T16:40:21.214Z,12.77
2022-12-13T16:42:56.367Z,15.27
2022-12-13T16:45:41.498Z,14.35
2022-12-13T16:48:15.101Z,14.20
2022-12-13T16:50:49.203Z,16.35
2022-12-13T16:53:30.780Z,22.38
2022-12-13T16:56:03.825Z,22.55
2022-12-13T16:58:36.330Z,21.42
2022-12-13T17:01:14.043Z,18.15
2022-12-13T17:03:46.793Z,24.98
2022-12-13T17:06:22.032Z,28.80
2022-12-13T17:08:54.886Z,18.58
2022-12-13T17:11:27.803Z,16.65
2022-12-13T17:14:00.676Z,17.75
2022-12-13T17:16:33.916Z,12.00
2022-12-13T17:19:06.724Z,12.63
2022-12-13T17:21:39.666Z,11.98
2022-12-13T17:24:13.527Z,12.70
2022-12-13T17:26:54.861Z,10.82
2022-12-13T17:29:28.288Z,13.25
2022-12-13T17:32:04.803Z,14.55
2022-12-13T17:34:37.491Z,14.40
2022-12-13T17:37:11.226Z,13.63
2022-12-13T17:39:44.104Z,13.75
2022-12-13T17:42:17.067Z,13.10
2022-12-13T17:44:49.619Z,13.02
2022-12-13T17:47:22.767Z,18.25
2022-12-13T17:49:55.933Z,25.50
2022-12-13T17:52:30.916Z,27.70
2022-12-13T17:55:05.016Z,30.50
2022-12-13T17:57:37.960Z,30.02
2022-12-13T18:00:11.242Z,22.75
2022-12-13T18:02:55.474Z,22.27
2022-12-13T18:05:29.135Z,19.48
2022-12-13T18:08:02.654Z,23.30
2022-12-13T18:10:35.260Z,23.40
2022-12-13T18:13:08.097Z,24.30
2022-12-13T18:15:41.687Z,26.52
2022-12-13T18:18:14.638Z,28.40
2022-12-13T18:20:47.377Z,25.27
2022-12-13T18:23:20.715Z,22.05
2022-12-13T18:25:58.851Z,22.55
2022-12-13T18:28:31.760Z,20.52
2022-12-13T18:31:05.863Z,18.90
2022-12-13T18:33:42.155Z,17.92
2022-12-13T18:36:18.984Z,20.92
2022-12-13T18:38:52.211Z,20.33
2022-12-13T18:41:28.581Z,25.67
2022-12-13T18:44:03.092Z,23.73
2022-12-13T18:46:36.540Z,25.20
2022-12-13T18:49:10.528Z,27.40
2022-12-13T18:51:43.080Z,26.83
2022-12-13T18:54:17.058Z,25.35
2022-12-13T18:56:50.303Z,25.45
2022-12-13T18:59:23.392Z,27.98
2022-12-13T19:01:56.090Z,32.80
2022-12-13T19:04:29.066Z,28.70
2022-12-13T19:07:01.653Z,24.42
2022-12-13T19:09:35.113Z,26.98
2022-12-13T19:12:07.672Z,24.48
2022-12-13T19:14:40.680Z,20.88
2022-12-13T19:17:13.452Z,21.67
2022-12-13T19:19:48.282Z,21.85
2022-12-13T19:22:22.076Z,23.10
2022-12-13T19:24:56.328Z,26.17
2022-12-13T19:27:29.896Z,29.50
2022-12-13T19:30:03.055Z,29.38
2022-12-13T19:32:35.528Z,24.50
2022-12-13T19:35:08.623Z,22.38
2022-12-13T19:37:41.304Z,22.00
2022-12-13T19:40:14.271Z,25.90
2022-12-13T19:42:46.753Z,19.58
2022-12-13T19:45:19.926Z,22.40
2022-12-13T19:47:52.491Z,24.70
2022-12-13T19:50:25.377Z,27.95
2022-12-13T19:52:58.469Z,28.55
2022-12-13T19:55:31.481Z,24.92
2022-12-13T19:58:04.069Z,23.35
2022-12-13T20:00:37.145Z,21.88
2022-12-13T20:03:09.840Z,24.50
2022-12-13T20:05:45.759Z,25.23
2022-12-13T20:08:18.616Z,23.02
2022-12-13T20:10:57.484Z,25.50
2022-12-13T20:13:35.127Z,28.92
2022-12-13T20:16:08.439Z,26.38
2022-12-13T20:18:41.104Z,28.92
2022-12-13T20:21:17.670Z,29.95
2022-12-13T20:23:50.576Z,27.35
2022-12-13T20:26:25.339Z,32.00
2022-12-13T20:28:59.372Z,28.63
2022-12-13T20:31:33.684Z,36.30
2022-12-13T20:34:10.311Z,36.08
2022-12-13T20:36:43.485Z,39.08
2022-12-13T20:39:16.176Z,36.83
2022-12-13T20:41:50.437Z,31.70
2022-12-13T20:44:23.055Z,29.27
2022-12-13T20:46:56.240Z,30.92
2022-12-13T20:49:28.950Z,33.35
2022-12-13T20:52:01.803Z,33.42
2022-12-13T20:54:34.712Z,39.03
2022-12-13T20:57:08.123Z,47.85
2022-12-13T20:59:43.316Z,46.47
2022-12-13T21:02:16.915Z,43.55
2022-12-13T21:04:49.697Z,37.70
2022-12-13T21:07:42.470Z,37.28
2022-12-13T21:10:20.882Z,35.53
2022-12-13T21:12:53.828Z,31.10
2022-12-13T21:15:26.356Z,35.72
2022-12-13T21:17:59.349Z,59.53
2022-12-13T21:20:32.072Z,43.30
2022-12-13T21:23:04.986Z,39.92
2022-12-13T21:25:37.526Z,33.63
2022-12-13T21:28:10.435Z,32.80
2022-12-13T21:30:43.086Z,35.55
2022-12-13T21:33:15.976Z,36.83
2022-12-13T21:35:48.549Z,35.17
2022-12-13T21:38:21.694Z,34.72
2022-12-13T21:40:54.475Z,35.90
2022-12-13T21:43:39.422Z,35.22
2022-12-13T21:46:22.510Z,36.65
2022-12-13T21:48:57.043Z,32.25
2022-12-13T21:51:32.519Z,32.28
2022-12-13T21:54:05.447Z,28.08
2022-12-13T21:56:56.643Z,28.65
2022-12-13T22:02:12.528Z,34.03
2022-12-13T22:04:50.055Z,30.05
2022-12-13T22:07:27.439Z,29.55
2022-12-13T22:10:01.289Z,30.20
2022-12-13T22:12:41.170Z,32.03
2022-12-13T22:15:15.532Z,34.90
2022-12-13T22:17:48.076Z,28.98
2022-12-13T22:20:21.206Z,31.67
2022-12-13T22:22:53.676Z,30.63
2022-12-13T22:25:26.527Z,31.13
2022-12-13T22:27:58.974Z,29.13
2022-12-13T22:30:31.883Z,33.10
2022-12-13T22:33:04.500Z,27.00
2022-12-13T22:35:38.287Z,29.58
2022-12-13T22:38:11.204Z,32.35
2022-12-13T22:40:44.188Z,35.97
2022-12-13T22:43:20.538Z,35.95
2022-12-13T22:46:00.650Z,30.42
2022-12-13T22:48:33.288Z,34.10
2022-12-13T22:51:07.225Z,36.70
2022-12-13T22:53:42.628Z,36.92
2022-12-13T22:56:17.489Z,34.92
2022-12-13T22:58:57.542Z,37.78
2022-12-13T23:01:32.000Z,35.05
2022-12-13T23:04:06.260Z,32.33
2022-12-13T23:06:39.948Z,31.90
2022-12-13T23:09:13.621Z,29.35
2022-12-13T23:12:04.936Z,29.73
2022-12-13T23:14:37.474Z,35.72
2022-12-13T23:17:10.340Z,28.85
2022-12-13T23:19:50.310Z,29.70
2022-12-13T23:22:26.372Z,29.75
2022-12-13T23:24:59.392Z,31.48
2022-12-13T23:27:32.467Z,36.33
2022-12-13T23:30:05.299Z,35.55
2022-12-13T23:32:38.232Z,39.50
2022-12-13T23:35:12.787Z,30.00
2022-12-13T23:37:45.821Z,30.95
2022-12-13T23:40:21.205Z,34.33
2022-12-13T23:42:54.319Z,30.95
2022-12-13T23:45:27.196Z,26.38
2022-12-13T23:48:00.392Z,24.50
2022-12-13T23:50:32.966Z,27.90
2022-12-13T23:53:05.840Z,26.63
2022-12-13T23:55:38.320Z,29.98
2022-12-13T23:58:13.251Z,29.77
